Time;durP1;ratioP1;P1;durP2;ratioP2;P2;SDS_P1;SDS_P2;PMS_P1;PMS_P2;Temp;Humidity;BMP_temperature;BMP_pressure;BME280_temperature;BME280_humidity;BME280_pressure;Samples;Min_cycle;Max_cycle;Signal;HPM_P1;HPM_P2
2023/05/14 00:02:22;;;;;;;9.15;8.23;;;11.20;99.90;;;10.82;100.00;97241.31;4997240;28;20467;-35
2023/05/14 00:04:48;;;;;;;10.85;8.35;;;11.20;99.90;;;10.77;100.00;97236.22;4996714;28;20029;-35
2023/05/14 00:07:13;;;;;;;9.68;7.85;;;11.20;99.90;;;10.80;100.00;97235.22;4996712;28;20482;-35
2023/05/14 00:09:39;;;;;;;9.85;8.27;;;11.20;99.90;;;10.78;100.00;97234.44;4996705;28;20041;-35
2023/05/14 00:12:05;;;;;;;10.48;8.52;;;11.20;99.90;;;10.78;100.00;97227.38;4998459;28;20033;-35
2023/05/14 00:14:31;;;;;;;9.93;8.00;;;11.20;99.90;;;10.76;100.00;97223.94;4996973;28;20045;-35
2023/05/14 00:16:58;;;;;;;10.65;8.18;;;11.20;99.90;;;10.70;100.00;97219.78;4999030;28;20526;-35
2023/05/14 00:19:24;;;;;;;9.50;8.50;;;11.10;99.90;;;10.65;100.00;97220.88;4994642;28;20056;-35
2023/05/14 00:21:50;;;;;;;10.80;8.57;;;11.10;99.90;;;10.56;100.00;97216.00;4996533;28;20487;-35
2023/05/14 00:24:15;;;;;;;9.50;7.90;;;11.00;99.90;;;10.54;100.00;97217.84;4999878;28;20036;-35
2023/05/14 00:26:41;;;;;;;9.07;7.10;;;11.00;99.90;;;10.48;100.00;97209.25;4995816;28;20034;-35
2023/05/14 00:29:07;;;;;;;9.27;7.82;;;11.00;99.90;;;10.47;100.00;97215.41;4997704;28;20448;-35
2023/05/14 00:31:32;;;;;;;12.38;9.13;;;10.90;99.90;;;10.41;100.00;97213.03;4994220;28;20220;-35
2023/05/14 00:33:58;;;;;;;11.07;8.02;;;10.90;99.90;;;10.40;100.00;97215.72;4993569;28;20395;-35
2023/05/14 00:36:24;;;;;;;11.38;8.68;;;10.80;99.90;;;10.36;100.00;97214.16;4995954;28;20030;-35
2023/05/14 00:38:49;;;;;;;11.25;8.63;;;10.80;99.90;;;10.27;100.00;97197.72;4994500;28;20080;-35
2023/05/14 00:41:15;;;;;;;8.77;7.55;;;10.80;99.90;;;10.32;100.00;97202.88;4999093;28;20022;-35
2023/05/14 00:43:41;;;;;;;8.52;7.22;;;10.70;99.90;;;10.31;100.00;97201.97;4996306;28;20041;-35
2023/05/14 00:46:06;;;;;;;10.35;8.85;;;10.70;99.90;;;10.27;100.00;97202.16;4995864;28;20038;-35
2023/05/14 00:48:33;;;;;;;10.55;8.90;;;10.70;99.90;;;10.24;100.00;97199.63;4994328;28;20468;-35
2023/05/14 00:50:58;;;;;;;10.73;8.10;;;10.70;99.90;;;10.20;100.00;97200.66;4993862;28;20041;-35
2023/05/14 00:53:24;;;;;;;9.48;7.63;;;10.60;99.90;;;10.18;100.00;97199.88;4994839;28;20030;-35
2023/05/14 00:55:50;;;;;;;10.85;7.43;;;10.60;99.90;;;10.13;100.00;97200.88;4993161;28;20376;-35
2023/05/14 00:58:18;;;;;;;11.07;7.90;;;10.60;99.90;;;10.12;100.00;97193.91;4997194;28;20033;-35
2023/05/14 01:00:43;;;;;;;11.10;9.05;;;10.60;99.90;;;10.08;100.00;97196.72;4992243;28;20041;-35
2023/05/14 01:03:09;;;;;;;9.70;7.95;;;10.50;99.90;;;10.05;100.00;97188.91;4996031;28;20373;-35
2023/05/14 01:06:16;;;;;;;9.93;8.20;;;10.50;99.90;;;9.99;100.00;97192.66;4993130;28;20533;-35
2023/05/14 01:09:13;;;;;;;8.98;7.75;;;10.40;99.90;;;9.93;100.00;97192.91;4995462;28;20478;-35
2023/05/14 01:11:48;;;;;;;11.20;8.55;;;10.40;99.90;;;9.84;100.00;97190.59;4990515;28;20035;-35
2023/05/14 01:14:24;;;;;;;9.60;8.48;;;10.30;99.90;;;9.78;100.00;97196.09;4994818;28;20030;-35
2023/05/14 01:16:56;;;;;;;9.20;7.78;;;10.20;99.90;;;9.72;100.00;97190.13;4993571;28;20037;-35
2023/05/14 01:19:39;;;;;;;8.98;8.07;;;10.20;99.90;;;9.65;100.00;97186.00;4995476;28;20064;-35
2023/05/14 01:22:05;;;;;;;9.90;8.38;;;10.10;99.90;;;9.52;100.00;97188.22;4994192;28;20112;-35
2023/05/14 01:24:31;;;;;;;11.88;8.43;;;10.00;99.90;;;9.50;100.00;97186.56;4995375;28;20501;-35
2023/05/14 01:27:06;;;;;;;10.18;8.45;;;10.00;99.90;;;9.38;100.00;97169.44;4989113;28;20628;-35
2023/05/14 01:29:33;;;;;;;10.63;8.70;;;9.90;99.90;;;9.33;100.00;97177.50;4997959;28;20057;-35
2023/05/14 01:32:00;;;;;;;10.23;8.30;;;9.80;99.90;;;9.24;100.00;97169.94;5000676;28;20025;-35
2023/05/14 01:34:28;;;;;;;10.82;8.23;;;9.70;99.90;;;9.27;100.00;97180.34;4991004;28;20474;-35
2023/05/14 01:36:56;;;;;;;9.48;7.93;;;9.70;99.90;;;9.21;100.00;97180.56;4993759;28;20046;-35
2023/05/14 01:39:23;;;;;;;11.80;8.98;;;9.60;99.90;;;9.18;100.00;97191.19;4995329;28;20106;-35
2023/05/14 01:41:51;;;;;;;12.30;8.82;;;9.60;99.90;;;9.13;100.00;97177.34;4991268;28;20028;-35
2023/05/14 01:44:17;;;;;;;9.65;8.50;;;9.60;99.90;;;9.09;100.00;97170.47;4995615;28;20125;-35
2023/05/14 01:46:43;;;;;;;10.10;8.38;;;9.50;99.90;;;9.08;100.00;97179.25;4984421;28;20122;-34
2023/05/14 01:49:08;;;;;;;9.82;8.80;;;9.50;99.90;;;9.02;100.00;97169.81;4995306;28;20026;-35
2023/05/14 01:51:34;;;;;;;10.30;8.73;;;9.50;99.90;;;8.97;100.00;97171.75;4988748;28;20041;-35
2023/05/14 01:54:00;;;;;;;11.75;9.70;;;9.50;99.90;;;8.95;100.00;97174.44;4990875;28;20530;-35
2023/05/14 01:56:25;;;;;;;12.88;9.43;;;9.50;99.90;;;8.93;100.00;97173.63;4994140;28;20095;-35
2023/05/14 01:58:51;;;;;;;10.45;8.85;;;9.50;99.90;;;8.91;100.00;97167.56;4990755;28;20481;-35
2023/05/14 02:01:17;;;;;;;8.73;7.82;;;9.40;99.90;;;8.93;100.00;97170.97;4995383;28;20058;-35
2023/05/14 02:03:43;;;;;;;10.57;8.63;;;9.40;99.90;;;8.91;100.00;97169.34;4991049;28;20479;-35
2023/05/14 02:06:08;;;;;;;10.27;9.15;;;9.40;99.90;;;8.85;100.00;97175.66;4978269;28;20022;-35
2023/05/14 02:08:34;;;;;;;17.30;8.82;;;9.40;99.90;;;8.79;100.00;97157.44;4992562;28;20030;-35
2023/05/14 02:11:00;;;;;;;10.32;8.68;;;9.30;99.90;;;8.74;100.00;97156.72;4992568;28;20029;-35
2023/05/14 02:13:26;;;;;;;9.73;8.27;;;9.30;99.90;;;8.77;100.00;97173.31;4992687;28;20018;-35
2023/05/14 02:15:51;;;;;;;10.10;9.10;;;9.20;99.90;;;8.74;100.00;97178.66;4992359;28;20026;-35
2023/05/14 02:18:17;;;;;;;10.20;8.30;;;9.20;99.90;;;8.62;100.00;97165.91;4994428;28;20033;-35
2023/05/14 02:20:43;;;;;;;11.93;9.35;;;9.20;99.90;;;8.65;100.00;97181.59;4990196;28;21347;-35
2023/05/14 02:23:09;;;;;;;11.07;9.63;;;9.10;99.90;;;8.66;100.00;97178.03;4993818;28;20026;-35
2023/05/14 02:25:34;;;;;;;10.57;8.95;;;9.10;99.90;;;8.68;100.00;97178.84;4988261;28;20548;-35
2023/05/14 02:28:00;;;;;;;11.30;9.23;;;9.10;99.90;;;8.71;100.00;97185.78;4995738;28;20030;-35
2023/05/14 02:30:26;;;;;;;10.95;9.18;;;9.20;99.90;;;8.73;100.00;97179.53;4992785;28;20089;-35
2023/05/14 02:32:51;;;;;;;14.32;10.48;;;9.20;99.90;;;8.75;100.00;97179.50;4994843;28;20025;-35
2023/05/14 02:35:17;;;;;;;11.18;9.93;;;9.30;99.90;;;8.79;100.00;97173.22;4991062;28;20037;-35
2023/05/14 02:37:43;;;;;;;12.00;9.85;;;9.30;99.90;;;8.84;100.00;97173.94;4994199;28;20045;-35
2023/05/14 02:40:09;;;;;;;13.77;9.02;;;9.30;99.90;;;8.87;100.00;97168.56;4994496;28;20045;-35
2023/05/14 02:42:35;;;;;;;10.10;8.75;;;9.40;99.90;;;8.90;100.00;97176.38;4992319;28;20048;-35
2023/05/14 02:45:01;;;;;;;10.88;8.68;;;9.40;99.90;;;8.93;100.00;97173.63;4991667;28;20027;-35
2023/05/14 02:47:26;;;;;;;12.10;9.57;;;9.40;99.90;;;8.95;100.00;97163.94;4993170;28;20034;-35
2023/05/14 02:49:52;;;;;;;10.40;9.13;;;9.40;99.90;;;8.99;100.00;97172.56;4990429;28;20038;-35
2023/05/14 02:52:18;;;;;;;12.32;9.57;;;9.40;99.90;;;9.00;100.00;97179.53;4990576;28;20490;-35
2023/05/14 02:54:43;;;;;;;10.98;9.10;;;9.50;99.90;;;9.04;100.00;97178.50;4995675;28;20042;-35
2023/05/14 02:57:09;;;;;;;10.45;8.55;;;9.50;99.90;;;9.07;100.00;97182.81;4992515;28;20026;-35
2023/05/14 02:59:35;;;;;;;11.35;8.85;;;9.50;99.90;;;9.12;100.00;97183.53;4987226;28;20100;-35
2023/05/14 03:02:00;;;;;;;9.48;8.50;;;9.60;99.90;;;9.10;100.00;97175.69;4992933;28;20433;-34
2023/05/14 03:04:26;;;;;;;11.50;9.85;;;9.60;99.90;;;9.14;100.00;97179.91;4991162;28;20418;-35
2023/05/14 03:06:52;;;;;;;14.07;9.52;;;9.60;99.90;;;9.15;100.00;97183.41;4994219;28;20030;-35
2023/05/14 03:09:18;;;;;;;15.02;11.48;;;9.60;99.90;;;9.13;100.00;97183.47;4993000;28;20029;-35
2023/05/14 03:11:44;;;;;;;14.50;11.00;;;9.60;99.90;;;9.09;100.00;97184.47;4987127;28;20029;-35
2023/05/14 03:14:10;;;;;;;12.40;10.02;;;9.60;99.90;;;9.16;100.00;97187.75;4993687;28;20034;-35
2023/05/14 03:16:36;;;;;;;12.43;9.90;;;9.70;99.90;;;9.17;100.00;97185.09;4991983;28;20442;-35
2023/05/14 03:19:01;;;;;;;13.73;11.57;;;9.70;99.90;;;9.17;100.00;97184.22;4987861;28;20029;-35
2023/05/14 03:21:27;;;;;;;12.57;11.27;;;9.70;99.90;;;9.16;100.00;97180.72;4988686;28;20109;-35
2023/05/14 03:23:53;;;;;;;13.65;11.02;;;9.60;99.90;;;9.15;100.00;97178.13;4988552;28;20038;-35
2023/05/14 03:26:18;;;;;;;13.40;11.00;;;9.70;99.90;;;9.16;100.00;97185.13;4988206;28;20038;-35
2023/05/14 03:28:44;;;;;;;11.63;9.98;;;9.70;99.90;;;9.17;100.00;97174.56;4991595;28;20030;-35
2023/05/14 03:31:10;;;;;;;12.07;10.57;;;9.70;99.90;;;9.19;100.00;97171.88;4996001;28;20521;-35
2023/05/14 03:33:36;;;;;;;12.80;10.27;;;9.70;99.90;;;9.23;100.00;97173.47;4996624;28;20050;-35
2023/05/14 03:36:01;;;;;;;11.73;9.18;;;9.70;99.90;;;9.26;100.00;97173.38;4994979;28;20462;-35
2023/05/14 03:38:27;;;;;;;10.73;9.38;;;9.70;99.90;;;9.27;100.00;97177.72;4993839;28;20034;-35
2023/05/14 03:40:53;;;;;;;12.85;10.88;;;9.70;99.90;;;9.28;100.00;97183.84;5011312;28;20034;-35
2023/05/14 03:43:18;;;;;;;15.68;11.30;;;9.70;99.90;;;9.26;100.00;97183.91;4994907;28;20610;-35
2023/05/14 03:45:44;;;;;;;12.60;10.98;;;9.80;99.90;;;9.25;100.00;97186.59;4993809;28;20703;-35
2023/05/14 03:48:10;;;;;;;12.30;10.68;;;9.80;99.90;;;9.24;100.00;97183.09;4995456;28;20772;-35
2023/05/14 03:50:36;;;;;;;13.00;10.70;;;9.70;99.90;;;9.24;100.00;97174.31;4990365;28;20057;-35
2023/05/14 03:53:02;;;;;;;17.73;11.93;;;9.80;99.90;;;9.19;100.00;97182.41;4993640;28;20045;-35
2023/05/14 03:55:27;;;;;;;14.15;12.00;;;9.70;99.90;;;9.16;100.00;97179.88;4996240;28;20071;-35
2023/05/14 03:57:53;;;;;;;13.45;10.77;;;9.70;99.90;;;9.18;100.00;97176.25;4995656;28;20081;-35
2023/05/14 04:00:19;;;;;;;14.10;11.30;;;9.70;99.90;;;9.15;100.00;97170.25;4986743;28;20037;-35
2023/05/14 04:02:45;;;;;;;11.48;9.93;;;9.70;99.90;;;9.17;100.00;97168.44;4981159;28;20073;-35
2023/05/14 04:05:10;;;;;;;11.75;9.85;;;9.70;99.90;;;9.22;100.00;97168.25;4988324;28;20053;-35
2023/05/14 04:07:36;;;;;;;11.10;9.30;;;9.70;99.90;;;9.21;100.00;97167.41;4983810;28;23571;-35
2023/05/14 04:10:02;;;;;;;12.68;11.32;;;9.70;99.90;;;9.21;100.00;97175.31;4983892;28;20606;-34
2023/05/14 04:12:28;;;;;;;11.73;9.65;;;9.70;99.90;;;9.23;100.00;97172.63;4984577;28;20489;-35
2023/05/14 04:14:54;;;;;;;15.40;10.88;;;9.70;99.90;;;9.16;100.00;97156.19;4986790;28;20045;-35
2023/05/14 04:17:19;;;;;;;12.13;9.30;;;9.80;99.90;;;9.27;100.00;97175.09;4984085;28;20030;-35
2023/05/14 04:19:45;;;;;;;11.48;8.98;;;9.70;99.90;;;9.30;100.00;97180.25;4985789;28;20037;-35
2023/05/14 04:22:11;;;;;;;11.32;8.65;;;9.80;99.90;;;9.32;100.00;97170.53;4987076;28;20034;-35
2023/05/14 04:24:36;;;;;;;11.80;9.45;;;9.80;99.90;;;9.27;100.00;97155.81;4987423;28;20041;-35
2023/05/14 04:27:03;;;;;;;11.77;9.98;;;9.80;99.90;;;9.32;100.00;97161.78;4990725;28;20553;-35
2023/05/14 04:29:29;;;;;;;13.85;9.88;;;9.90;99.90;;;9.36;100.00;97166.84;4986864;28;20042;-35
2023/05/14 04:31:54;;;;;;;11.57;10.00;;;9.80;99.90;;;9.36;100.00;97169.47;4988887;28;20257;-34
2023/05/14 04:34:20;;;;;;;12.70;10.13;;;9.90;99.90;;;9.36;100.00;97172.13;4987135;28;20034;-35
2023/05/14 04:36:46;;;;;;;13.82;9.73;;;9.90;99.90;;;9.42;100.00;97178.97;4984075;28;20033;-35
2023/05/14 04:39:12;;;;;;;11.07;9.25;;;9.90;99.90;;;9.43;100.00;97175.41;4983040;28;20038;-35
2023/05/14 04:41:37;;;;;;;12.95;10.50;;;9.90;99.90;;;9.45;100.00;97170.09;4982538;28;20626;-35
2023/05/14 04:44:03;;;;;;;12.38;10.73;;;9.90;99.90;;;9.47;100.00;97166.47;4987844;28;20049;-35
2023/05/14 04:46:29;;;;;;;14.00;9.52;;;10.00;99.90;;;9.45;100.00;97167.44;4983999;28;20118;-35
2023/05/14 04:48:55;;;;;;;13.05;10.63;;;10.00;99.90;;;9.46;100.00;97174.44;4983038;28;20217;-35
2023/05/14 04:51:22;;;;;;;12.15;9.98;;;10.00;99.90;;;9.44;100.00;97155.19;4981853;28;20034;-35
2023/05/14 04:53:47;;;;;;;12.98;10.13;;;10.00;99.90;;;9.51;100.00;97160.19;4983948;28;20038;-35
2023/05/14 04:56:13;;;;;;;13.57;10.27;;;10.00;99.90;;;9.51;100.00;97169.84;4988411;28;20062;-35
2023/05/14 04:58:39;;;;;;;13.48;10.80;;;10.00;99.90;;;9.50;100.00;97178.69;4982784;28;20041;-35
2023/05/14 05:01:05;;;;;;;13.18;10.63;;;10.00;99.90;;;9.51;100.00;97183.00;4990079;28;20068;-35
2023/05/14 05:03:30;;;;;;;12.48;10.45;;;10.00;99.90;;;9.52;100.00;97175.06;4982783;28;20387;-35
2023/05/14 05:05:56;;;;;;;12.55;9.75;;;10.00;99.90;;;9.56;100.00;97181.06;4982041;28;20338;-35
2023/05/14 05:08:22;;;;;;;13.05;9.73;;;10.00;99.90;;;9.60;100.00;97177.44;4986204;28;20036;-35
2023/05/14 05:10:48;;;;;;;14.90;10.82;;;10.10;99.90;;;9.62;100.00;97177.34;4982136;28;20034;-35
2023/05/14 05:13:15;;;;;;;13.15;9.85;;;10.10;99.90;;;9.64;100.00;97179.03;4984070;28;20030;-35
2023/05/14 05:15:42;;;;;;;13.98;10.63;;;10.10;99.90;;;9.58;100.00;97159.97;4979891;28;20045;-35
2023/05/14 05:18:08;;;;;;;14.00;11.15;;;10.20;99.90;;;9.65;100.00;97164.09;4986871;28;20044;-35
2023/05/14 05:20:33;;;;;;;12.15;9.85;;;10.20;99.90;;;9.72;100.00;97166.41;4980678;28;20033;-34
2023/05/14 05:22:59;;;;;;;11.02;8.95;;;10.20;99.90;;;9.81;100.00;97172.28;4982978;28;20430;-35
2023/05/14 05:25:26;;;;;;;13.73;10.82;;;10.30;99.90;;;9.87;100.00;97164.13;4986062;28;20125;-35
2023/05/14 05:27:51;;;;;;;12.18;9.32;;;10.40;99.90;;;9.93;100.00;97170.03;4982974;28;20104;-35
2023/05/14 05:30:17;;;;;;;12.82;10.35;;;10.40;99.90;;;9.98;100.00;97171.63;4981794;28;20042;-35
2023/05/14 05:32:43;;;;;;;11.02;9.48;;;10.40;99.90;;;10.05;100.00;97181.88;4986110;28;20718;-35
2023/05/14 05:35:09;;;;;;;12.20;10.38;;;10.50;99.90;;;10.03;100.00;97169.69;4987194;28;20108;-35
2023/05/14 05:37:34;;;;;;;12.15;9.02;;;10.50;99.90;;;10.06;100.00;97170.41;4980224;28;20084;-35
2023/05/14 05:40:00;;;;;;;11.63;8.23;;;10.60;99.90;;;10.10;100.00;97174.69;4985633;28;20041;-35
2023/05/14 05:42:26;;;;;;;11.63;9.20;;;10.60;99.90;;;10.11;100.00;97179.00;4982295;28;20120;-35
2023/05/14 05:44:51;;;;;;;9.10;7.90;;;10.60;99.90;;;10.13;100.00;97174.53;4985971;28;20028;-35
2023/05/14 05:47:17;;;;;;;11.27;8.30;;;10.60;99.90;;;10.12;100.00;97179.84;4985734;28;20100;-35
2023/05/14 05:49:43;;;;;;;11.57;9.32;;;10.60;99.90;;;10.05;100.00;97174.00;4979178;28;20034;-35
2023/05/14 05:52:09;;;;;;;11.00;8.90;;;10.60;99.90;;;10.09;100.00;97177.38;4987118;28;20034;-35
2023/05/14 05:54:34;;;;;;;11.25;8.73;;;10.60;99.90;;;10.11;100.00;97173.75;4984765;28;20053;-35
2023/05/14 05:57:00;;;;;;;10.15;8.45;;;10.60;99.90;;;10.15;100.00;97174.47;4987864;28;20462;-34
2023/05/14 05:59:26;;;;;;;10.98;8.65;;;10.60;99.90;;;10.17;100.00;97174.44;4989061;28;20034;-35
2023/05/14 06:01:52;;;;;;;10.43;8.05;;;10.60;99.90;;;10.22;100.00;97173.31;4984434;28;20478;-35
2023/05/14 06:04:17;;;;;;;10.35;8.70;;;10.70;99.90;;;10.23;100.00;97167.16;4982381;28;20029;-34
2023/05/14 06:06:43;;;;;;;10.65;8.55;;;10.80;99.90;;;10.37;100.00;97177.16;4984186;28;20489;-35
2023/05/14 06:09:09;;;;;;;9.38;8.32;;;10.80;99.90;;;10.44;100.00;97175.13;4986121;28;20038;-35
2023/05/14 06:11:35;;;;;;;9.60;7.65;;;10.90;99.90;;;10.59;100.00;97181.59;4984706;28;20104;-35
2023/05/14 06:14:00;;;;;;;10.50;8.65;;;11.00;99.90;;;10.68;100.00;97174.16;4988245;28;21448;-35
2023/05/14 06:16:26;;;;;;;11.60;8.90;;;11.10;99.90;;;10.82;100.00;97178.00;4976469;28;20105;-35
2023/05/14 06:18:54;;;;;;;9.40;7.85;;;11.30;99.90;;;10.96;100.00;97182.69;4979859;28;20510;-35
2023/05/14 06:21:20;;;;;;;11.45;9.20;;;11.40;99.90;;;11.04;100.00;97184.09;4989003;28;20065;-35
2023/05/14 06:23:45;;;;;;;10.60;8.57;;;11.50;99.90;;;11.19;100.00;97179.09;4983033;28;20038;-35
2023/05/14 06:26:11;;;;;;;8.85;7.78;;;11.70;99.90;;;11.33;100.00;97183.78;4986891;28;20482;-35
2023/05/14 06:28:37;;;;;;;12.02;8.07;;;11.80;99.90;;;11.41;100.00;97185.16;4987031;28;20038;-35
2023/05/14 06:31:02;;;;;;;11.73;8.02;;;11.90;99.90;;;11.44;100.00;97181.53;4980282;28;20092;-35
2023/05/14 06:33:29;;;;;;;9.57;7.45;;;11.90;99.90;;;11.61;100.00;97183.41;4987617;28;20038;-35
2023/05/14 06:35:57;;;;;;;10.63;7.57;;;12.00;99.90;;;11.76;100.00;97187.16;4975341;28;20154;-35
2023/05/14 06:38:23;;;;;;;11.18;8.35;;;12.10;99.90;;;11.75;100.00;97188.94;4984560;28;20419;-35
2023/05/14 06:40:49;;;;;;;8.10;6.90;;;12.30;99.90;;;11.83;100.00;97194.72;4978595;28;20053;-35
2023/05/14 06:43:15;;;;;;;12.65;7.22;;;12.30;99.90;;;11.99;100.00;97181.72;4988172;28;20030;-34
2023/05/14 06:45:40;;;;;;;10.25;7.40;;;12.50;99.90;;;12.04;100.00;97184.13;4978038;28;20034;-35
2023/05/14 06:48:08;;;;;;;9.13;7.53;;;12.50;99.90;;;12.11;100.00;97175.00;4984389;28;20037;-35
2023/05/14 06:50:34;;;;;;;8.88;6.53;;;12.60;99.90;;;12.24;100.00;97183.22;4977013;28;20049;-35
2023/05/14 06:53:00;;;;;;;10.73;6.40;;;12.60;99.90;;;12.31;100.00;97182.00;4989019;28;20096;-35
2023/05/14 06:55:26;;;;;;;9.45;7.07;;;12.70;99.90;;;12.34;100.00;97183.63;4983459;28;20040;-35
2023/05/14 06:57:51;;;;;;;9.85;6.80;;;12.80;99.90;;;12.44;100.00;97184.06;4987589;28;20041;-35
2023/05/14 07:00:18;;;;;;;7.82;6.53;;;12.90;99.90;;;12.38;100.00;97183.44;4977424;28;20053;-35
2023/05/14 07:02:44;;;;;;;7.57;6.30;;;12.90;99.90;;;12.52;100.00;97184.53;4986216;28;20029;-35
2023/05/14 07:05:10;;;;;;;8.18;6.93;;;12.90;99.90;;;12.56;100.00;97175.53;4983838;28;20029;-35
2023/05/14 07:07:36;;;;;;;8.23;6.47;;;13.00;99.90;;;12.65;100.00;97179.50;4984112;28;20116;-35
2023/05/14 07:10:01;;;;;;;7.63;6.30;;;13.10;99.90;;;12.74;100.00;97179.06;4985767;28;20394;-35
2023/05/14 07:12:27;;;;;;;7.15;5.97;;;13.10;99.90;;;12.78;100.00;97181.50;4983394;28;20320;-35
2023/05/14 07:14:53;;;;;;;9.07;6.82;;;13.20;99.90;;;12.77;100.00;97189.50;4984915;28;20120;-35
2023/05/14 07:17:18;;;;;;;9.02;6.43;;;13.20;99.90;;;12.64;100.00;97169.88;4988493;28;20038;-36
2023/05/14 07:19:44;;;;;;;7.80;6.25;;;13.20;99.90;;;12.77;100.00;97185.06;4986549;28;20475;-36
2023/05/14 07:22:10;;;;;;;8.68;6.68;;;13.20;99.90;;;12.76;100.00;97183.34;4985111;28;20041;-36
2023/05/14 07:24:36;;;;;;;8.60;6.38;;;13.20;99.90;;;12.80;100.00;97174.31;4984518;28;20048;-36
2023/05/14 07:27:01;;;;;;;9.88;6.03;;;13.20;99.90;;;12.90;100.00;97180.03;4985157;28;20037;-36
2023/05/14 07:29:28;;;;;;;6.75;6.03;;;13.30;99.90;;;13.00;100.00;97180.41;4987054;28;20038;-36
2023/05/14 07:31:54;;;;;;;10.32;7.53;;;13.40;99.90;;;13.08;100.00;97172.97;4979710;28;20042;-36
2023/05/14 07:34:20;;;;;;;9.45;6.60;;;13.50;99.90;;;13.17;100.00;97175.13;4986410;28;20026;-36
2023/05/14 07:36:46;;;;;;;8.38;6.43;;;13.60;99.90;;;13.30;100.00;97175.38;4983881;28;20549;-36
2023/05/14 07:39:11;;;;;;;9.45;6.90;;;13.70;99.90;;;13.36;100.00;97171.56;4997605;22;20074;-35
2023/05/14 07:41:37;;;;;;;7.97;6.53;;;13.80;99.90;;;13.46;100.00;97178.09;4975705;28;20097;-35
2023/05/14 07:44:03;;;;;;;8.50;6.63;;;13.90;99.90;;;13.47;100.00;97169.22;4977123;28;20022;-35
2023/05/14 07:46:29;;;;;;;10.13;6.95;;;13.90;99.90;;;13.65;100.00;97174.47;4970963;28;20121;-35
2023/05/14 07:48:55;;;;;;;8.38;6.50;;;14.10;99.90;;;13.80;100.00;97168.38;4971530;28;20026;-35
2023/05/14 07:51:20;;;;;;;7.72;6.55;;;14.20;99.90;;;14.03;100.00;97168.91;4976105;28;20033;-35
2023/05/14 07:53:46;;;;;;;9.32;6.85;;;14.50;99.90;;;14.13;100.00;97170.13;4977253;28;20054;-35
2023/05/14 07:56:12;;;;;;;10.27;7.10;;;14.60;99.90;;;14.25;100.00;97165.97;4979975;28;20034;-35
2023/05/14 07:58:37;;;;;;;7.78;6.22;;;14.80;99.90;;;14.58;100.00;97168.53;4978890;28;20505;-35
2023/05/14 08:01:05;;;;;;;8.55;6.22;;;15.00;99.90;;;14.84;100.00;97168.81;4969059;28;20084;-35
2023/05/14 08:03:32;;;;;;;7.70;6.28;;;15.20;99.90;;;15.20;100.00;97163.19;4973634;28;20039;-35
2023/05/14 08:05:58;;;;;;;9.07;7.10;;;15.50;99.90;;;15.49;100.00;97168.56;4971701;28;20026;-35
2023/05/14 08:08:24;;;;;;;9.98;6.55;;;15.90;99.90;;;15.53;100.00;97161.25;4975807;28;20494;-35
2023/05/14 08:10:50;;;;;;;8.65;7.03;;;16.10;99.90;;;15.73;100.00;97166.19;4964696;28;20038;-35
2023/05/14 08:13:15;;;;;;;10.70;7.47;;;16.20;99.90;;;15.86;100.00;97161.00;4973058;28;20072;-35
2023/05/14 08:15:41;;;;;;;9.30;6.38;;;16.40;99.90;;;16.02;100.00;97161.78;4965192;28;20380;-35
2023/05/14 08:18:07;;;;;;;8.60;6.65;;;16.50;99.90;;;15.71;100.00;97165.44;4971758;28;20975;-35
2023/05/14 08:20:32;;;;;;;10.52;6.97;;;16.40;99.90;;;15.59;100.00;97166.19;4967356;28;20034;-35
2023/05/14 08:22:58;;;;;;;7.00;6.15;;;16.10;99.90;;;15.62;100.00;97160.69;4973087;28;20026;-35
2023/05/14 08:25:24;;;;;;;9.63;6.60;;;16.00;99.90;;;15.55;100.00;97164.66;4973532;28;20038;-35
2023/05/14 08:27:49;;;;;;;7.45;5.80;;;15.90;99.90;;;15.49;100.00;97159.69;4972134;28;20022;-35
2023/05/14 08:30:16;;;;;;;6.65;5.40;;;15.80;99.90;;;15.57;100.00;97154.78;4976550;28;20039;-35
2023/05/14 08:32:42;;;;;;;7.63;6.82;;;15.80;99.90;;;15.70;100.00;97153.06;4976512;28;20272;-36
2023/05/14 08:35:08;;;;;;;9.75;7.22;;;15.90;99.90;;;15.89;100.00;97142.19;4972645;28;20034;-35
2023/05/14 08:37:34;;;;;;;7.05;5.65;;;16.10;99.90;;;16.15;100.00;97148.56;4971155;28;20058;-35
2023/05/14 08:39:59;;;;;;;7.43;5.88;;;16.30;99.90;;;16.29;100.00;97149.47;4969911;28;20038;-35
2023/05/14 08:42:27;;;;;;;7.95;6.15;;;16.60;99.90;;;16.60;100.00;97143.03;4978940;28;20372;-36
2023/05/14 08:45:00;;;;;;;7.93;5.35;;;16.90;99.90;;;17.00;100.00;97150.22;4973779;28;20129;-35
2023/05/14 08:47:29;;;;;;;8.25;5.93;;;17.20;99.90;;;17.18;100.00;97149.81;4975816;28;20030;-36
2023/05/14 08:50:04;;;;;;;10.07;6.18;;;17.50;99.90;;;17.43;100.00;97136.66;4966047;28;20400;-36
2023/05/14 08:52:31;;;;;;;9.63;6.90;;;17.80;99.90;;;17.55;100.00;97133.13;4965503;28;20931;-36
2023/05/14 08:55:02;;;;;;;9.98;7.88;;;18.00;99.90;;;17.63;99.86;97137.94;4972562;28;20047;-36
2023/05/14 08:57:31;;;;;;;12.82;6.18;;;18.10;99.90;;;17.68;100.00;97152.63;4968810;28;20034;-36
2023/05/14 08:59:57;;;;;;;7.05;5.15;;;18.00;99.90;;;17.83;100.00;97149.88;4965601;28;20033;-35
2023/05/14 09:02:27;;;;;;;9.35;6.57;;;18.10;99.90;;;17.71;100.00;97147.09;4974243;28;20154;-35
2023/05/14 09:04:57;;;;;;;6.78;5.88;;;18.10;99.90;;;17.64;100.00;97145.81;4964526;28;20231;-36
2023/05/14 09:07:23;;;;;;;8.90;7.32;;;17.90;99.90;;;17.26;100.00;97133.31;4970027;28;20038;-36
2023/05/14 09:09:50;;;;;;;8.35;7.00;;;17.70;99.90;;;17.11;98.80;97142.34;4970652;28;20068;-36
2023/05/14 09:12:16;;;;;;;8.13;6.70;;;17.50;99.90;;;17.06;97.63;97144.47;4974881;28;20022;-36
2023/05/14 09:14:42;;;;;;;8.40;6.30;;;17.40;99.90;;;17.04;100.00;97146.38;4969116;28;20217;-36
2023/05/14 09:17:11;;;;;;;10.35;8.10;;;17.30;99.90;;;17.08;99.94;97148.72;4967469;28;20151;-36
2023/05/14 09:19:40;;;;;;;10.05;8.38;;;17.50;99.90;;;17.02;93.34;97148.31;4963285;28;20053;-36
2023/05/14 09:22:11;;;;;;;11.75;8.70;;;17.60;99.90;;;17.20;89.65;97140.88;4970907;28;20570;-36
2023/05/14 09:24:38;;;;;;;10.27;8.77;;;17.70;99.90;;;17.45;86.20;97140.06;4972740;28;20471;-36
2023/05/14 09:27:05;;;;;;;13.48;8.80;;;18.00;99.90;;;17.67;88.42;97129.59;4971686;28;20030;-36
2023/05/14 09:29:31;;;;;;;9.50;7.70;;;18.20;99.90;;;17.84;90.02;97125.75;4969758;28;20027;-36
2023/05/14 09:31:59;;;;;;;9.57;7.60;;;18.40;99.90;;;17.93;87.05;97140.28;4968534;28;20038;-36
2023/05/14 09:34:27;;;;;;;10.60;8.77;;;18.40;99.90;;;17.64;86.14;97137.81;4967406;28;20030;-36
2023/05/14 09:37:01;;;;;;;10.05;7.65;;;18.20;99.90;;;17.52;83.62;97114.69;4968321;28;20034;-36
2023/05/14 09:39:28;;;;;;;11.85;7.85;;;18.10;99.90;;;17.41;89.33;97128.75;4958358;28;20781;-36
2023/05/14 09:41:54;;;;;;;10.52;8.55;;;17.90;99.90;;;17.33;87.72;97117.75;4972529;28;20038;-37
2023/05/14 09:44:21;;;;;;;7.93;5.93;;;17.80;99.90;;;17.39;90.51;97125.34;4975414;28;20045;-36
2023/05/14 09:46:48;;;;;;;9.02;6.68;;;17.70;99.90;;;17.29;91.02;97118.94;4973041;28;20034;-36
2023/05/14 09:49:14;;;;;;;8.35;6.55;;;17.60;99.90;;;17.22;95.96;97126.47;4978811;28;20030;-37
2023/05/14 09:51:40;;;;;;;7.82;5.88;;;17.60;99.90;;;17.32;93.53;97119.56;4974149;28;20070;-37
2023/05/14 09:54:07;;;;;;;8.65;6.32;;;17.60;99.90;;;17.23;91.40;97114.88;4978107;28;20053;-36
2023/05/14 09:56:33;;;;;;;8.32;6.60;;;17.70;99.90;;;17.17;85.45;97116.16;4971244;28;20030;-36
2023/05/14 09:59:00;;;;;;;8.48;5.38;;;17.70;99.90;;;17.33;90.64;97115.09;4971859;28;20084;-36
2023/05/14 10:01:28;;;;;;;6.65;5.00;;;17.70;99.90;;;17.41;88.82;97114.53;4967167;28;20053;-36
2023/05/14 10:03:55;;;;;;;7.15;5.18;;;17.80;99.90;;;17.47;86.97;97117.66;4974212;28;20352;-36
2023/05/14 10:06:29;;;;;;;7.85;6.47;;;17.90;99.90;;;17.68;83.79;97111.78;4970715;28;20035;-36
2023/05/14 10:09:00;;;;;;;8.32;5.97;;;18.10;99.90;;;17.87;84.97;97116.69;4968735;28;20105;-36
2023/05/14 10:11:31;;;;;;;7.22;6.38;;;18.20;99.90;;;17.72;79.23;97114.13;4967540;28;20050;-36